Time;durP1;ratioP1;P1;durP2;ratioP2;P2;SDS_P1;SDS_P2;PMS_P1;PMS_P2;Temp;Humidity;BMP_temperature;BMP_pressure;BME280_temperature;BME280_humidity;BME280_pressure;Samples;Min_cycle;Max_cycle;Signal;HPM_P1;HPM_P2
2023/07/04 00:01:51;;;;;;;;;;;20.80;84.30;;;21.08;51.28;98517.81;4974376;28;112843;-83
2023/07/04 00:04:21;;;;;;;;;;;20.80;84.20;;;21.08;51.59;98518.63;4985648;28;124807;-83
2023/07/04 00:06:48;;;;;;;;;;;20.80;84.20;;;21.08;51.23;98515.81;4986875;28;123924;-83
2023/07/04 00:09:15;;;;;;;;;;;20.80;84.40;;;21.07;51.20;98519.03;4987298;28;114594;-84
2023/07/04 00:11:41;;;;;;;;;;;20.80;84.40;;;21.05;51.39;98510.97;4987211;28;113650;-83
2023/07/04 00:14:07;;;;;;;;;;;20.80;84.90;;;21.03;51.48;98518.19;4987917;28;124171;-84
2023/07/04 00:16:33;;;;;;;;;;;20.80;84.80;;;20.99;51.44;98506.13;4974673;28;123856;-84
2023/07/04 00:19:03;;;;;;;;;;;20.80;85.00;;;20.95;51.68;98501.28;4972948;28;113753;-84
2023/07/04 00:21:30;;;;;;;;;;;20.70;85.00;;;20.92;51.67;98518.91;4986304;28;113764;-84
2023/07/04 00:23:56;;;;;;;;;;;20.70;85.10;;;20.89;51.81;98511.25;4986554;28;124160;-84
2023/07/04 00:26:27;;;;;;;;;;;20.70;85.60;;;20.86;52.21;98514.03;4967441;28;123743;-84
2023/07/04 00:28:53;;;;;;;;;;;20.60;86.00;;;20.81;52.13;98511.59;4966571;28;115461;-84
2023/07/04 00:31:24;;;;;;;;;;;20.50;86.30;;;20.79;52.65;98513.97;4979215;28;114678;-84
2023/07/04 00:33:50;;;;;;;;;;;20.50;86.60;;;20.75;52.84;98508.34;4972899;28;123089;-84
2023/07/04 00:36:20;;;;;;;;;;;20.50;87.10;;;20.72;52.75;98495.06;4987916;28;123936;-84
2023/07/04 00:38:57;;;;;;;;;;;20.50;87.50;;;20.69;53.17;98496.66;4987491;28;115055;-86
2023/07/04 00:41:27;;;;;;;;;;;20.40;87.80;;;20.67;53.45;98501.03;4986490;28;113699;-82
2023/07/04 00:44:19;;;;;;;;;;;20.50;88.10;;;20.64;53.57;98505.44;4985883;28;124643;-83
2023/07/04 00:46:52;;;;;;;;;;;20.40;88.50;;;20.59;53.74;98513.41;4989467;28;124131;-83
2023/07/04 00:49:43;;;;;;;;;;;20.40;89.00;;;20.55;54.24;98518.97;4989247;28;114069;-83
2023/07/04 00:52:16;;;;;;;;;;;20.40;89.20;;;20.56;54.22;98522.59;4988730;28;114387;-83
2023/07/04 00:54:52;;;;;;;;;;;20.30;89.50;;;20.56;54.26;98512.19;4977385;28;124220;-83
2023/07/04 00:57:25;;;;;;;;;;;20.30;90.00;;;20.57;54.37;98521.41;4989228;28;123940;-83
2023/07/04 00:59:58;;;;;;;;;;;20.30;90.20;;;20.55;54.58;98518.16;4993107;28;113477;-83
2023/07/04 01:02:28;;;;;;;;;;;20.30;90.30;;;20.54;54.70;98524.97;4988932;28;113842;-83
2023/07/04 01:04:56;;;;;;;;;;;20.30;90.50;;;20.55;55.07;98516.16;4989489;28;124252;-83
2023/07/04 01:07:25;;;;;;;;;;;20.30;90.60;;;20.54;55.24;98522.97;4974500;28;122873;-82
2023/07/04 01:10:25;;;;;;;;;;;20.20;90.70;;;20.51;55.11;98523.72;4991147;28;114437;-83
2023/07/04 01:12:51;;;;;;;;;;;20.20;90.90;;;20.52;55.44;98533.75;4992276;28;114383;-83
2023/07/04 01:15:18;;;;;;;;;;;20.20;91.10;;;20.52;55.24;98528.13;4989153;28;124489;-83
2023/07/04 01:17:44;;;;;;;;;;;20.20;91.00;;;20.53;55.63;98518.53;4990156;28;124333;-83
2023/07/04 01:20:12;;;;;;;;;;;20.20;91.10;;;20.53;55.37;98518.53;4989856;28;115525;-82
2023/07/04 01:22:58;;;;;;;;;;;20.20;91.10;;;20.52;55.22;98517.72;4985693;28;115032;-83
2023/07/04 01:25:35;;;;;;;;;;;20.20;91.20;;;20.53;55.25;98529.75;4988766;28;124250;-83
2023/07/04 01:28:02;;;;;;;;;;;20.20;91.20;;;20.54;55.29;98531.41;4992637;28;124523;-83
2023/07/04 01:30:31;;;;;;;;;;;20.30;91.30;;;20.54;55.41;98525.78;4988854;28;114626;-83
2023/07/04 01:32:59;;;;;;;;;;;20.20;91.30;;;20.57;55.22;98521.41;4983827;28;113974;-83
2023/07/04 01:35:27;;;;;;;;;;;20.30;91.40;;;20.58;55.40;98523.84;4988292;28;124009;-83
2023/07/04 01:37:54;;;;;;;;;;;20.30;91.40;;;20.59;55.10;98519.03;4989206;28;124602;-83
2023/07/04 01:40:24;;;;;;;;;;;20.30;91.40;;;20.61;55.29;98519.44;4984692;28;114196;-83
2023/07/04 01:42:50;;;;;;;;;;;20.30;91.40;;;20.65;55.11;98517.47;4988384;28;113863;-83
2023/07/04 01:45:17;;;;;;;;;;;20.30;91.50;;;20.67;55.20;98512.28;4991152;28;123942;-83
2023/07/04 01:47:43;;;;;;;;;;;20.30;91.50;;;20.68;55.11;98514.69;4991589;28;123313;-83
2023/07/04 01:50:10;;;;;;;;;;;20.40;91.50;;;20.72;55.18;98507.09;4989919;28;114663;-83
2023/07/04 01:52:37;;;;;;;;;;;20.40;91.50;;;20.74;54.91;98513.16;4988930;28;113769;-83
2023/07/04 01:55:05;;;;;;;;;;;20.40;91.50;;;20.78;55.42;98521.59;4987627;28;124913;-83
2023/07/04 01:57:36;;;;;;;;;;;20.40;91.40;;;20.79;55.23;98516.78;4988974;28;124115;-83
2023/07/04 02:00:03;;;;;;;;;;;20.40;91.40;;;20.84;54.75;98516.44;4989958;28;114544;-83
2023/07/04 02:02:34;;;;;;;;;;;20.50;91.40;;;20.87;54.56;98522.06;4992710;28;113388;-83
2023/07/04 02:05:00;;;;;;;;;;;20.50;91.40;;;20.88;54.66;98515.28;4992556;28;123649;-83
2023/07/04 02:07:31;;;;;;;;;;;20.50;91.40;;;20.90;54.50;98515.69;4988352;28;123920;-83
2023/07/04 02:09:58;;;;;;;;;;;20.50;91.40;;;20.91;54.63;98516.50;4988051;28;115142;-82
2023/07/04 02:12:24;;;;;;;;;;;20.60;91.40;;;20.92;54.64;98518.91;4988734;28;115585;-82
2023/07/04 02:14:50;;;;;;;;;;;20.60;91.30;;;20.94;54.38;98524.94;4988209;28;124109;-83
2023/07/04 02:17:16;;;;;;;;;;;20.60;91.30;;;20.96;54.25;98518.94;4972130;28;123195;-83
2023/07/04 02:19:42;;;;;;;;;;;20.60;91.30;;;20.96;54.65;98513.34;4988243;28;114262;-83
2023/07/04 02:22:09;;;;;;;;;;;20.60;91.30;;;20.98;54.48;98522.16;4989693;28;113833;-83
2023/07/04 02:24:35;;;;;;;;;;;20.60;91.30;;;20.97;54.36;98514.94;4987029;28;124121;-83
2023/07/04 02:27:01;;;;;;;;;;;20.60;91.40;;;20.96;54.42;98518.94;4990125;28;123824;-83
2023/07/04 02:29:27;;;;;;;;;;;20.60;91.40;;;20.97;54.42;98520.56;4986523;28;114382;-83
2023/07/04 02:31:54;;;;;;;;;;;20.70;91.40;;;20.97;54.76;98520.56;4989730;28;113837;-83
2023/07/04 02:34:20;;;;;;;;;;;20.70;91.50;;;20.96;54.64;98518.94;4987626;28;124101;-83
2023/07/04 02:36:46;;;;;;;;;;;20.60;91.50;;;20.95;54.79;98522.94;4988604;28;125071;-83
2023/07/04 02:39:12;;;;;;;;;;;20.60;91.50;;;20.94;54.80;98521.34;4976941;28;114049;-83
2023/07/04 02:41:39;;;;;;;;;;;20.60;91.50;;;20.95;54.87;98517.31;4989925;28;113744;-83
2023/07/04 02:44:05;;;;;;;;;;;20.60;91.50;;;20.94;54.90;98524.13;4988045;28;124344;-82
2023/07/04 02:46:31;;;;;;;;;;;20.60;91.60;;;20.91;54.83;98516.50;4987260;28;123938;-83
2023/07/04 02:48:57;;;;;;;;;;;20.60;91.60;;;20.89;54.64;98518.88;4990887;28;114626;-82
2023/07/04 02:51:24;;;;;;;;;;;20.60;91.70;;;20.89;55.06;98527.31;4987740;28;113925;-82
2023/07/04 02:53:50;;;;;;;;;;;20.60;91.70;;;20.87;55.20;98529.69;4987830;28;124563;-83
2023/07/04 02:56:16;;;;;;;;;;;20.60;91.80;;;20.83;55.16;98531.69;4988502;28;123924;-82
2023/07/04 02:58:42;;;;;;;;;;;20.50;91.70;;;20.79;55.55;98530.81;4987060;28;115219;-83
2023/07/04 03:01:09;;;;;;;;;;;20.50;91.80;;;20.78;55.02;98530.03;4989010;28;114834;-83
2023/07/04 03:03:40;;;;;;;;;;;20.50;91.80;;;20.79;55.16;98530.81;4986847;28;124145;-83
2023/07/04 03:06:06;;;;;;;;;;;20.50;91.80;;;20.78;55.25;98541.25;4988689;28;124568;-83
2023/07/04 03:08:33;;;;;;;;;;;20.50;91.90;;;20.75;55.46;98542.03;4976800;28;115196;-83
2023/07/04 03:10:59;;;;;;;;;;;20.50;91.90;;;20.71;55.60;98541.16;4990718;28;112953;-83
2023/07/04 03:13:28;;;;;;;;;;;20.40;91.90;;;20.71;55.28;98543.97;4985335;28;124459;-83
2023/07/04 03:15:54;;;;;;;;;;;20.40;92.00;;;20.69;55.65;98543.59;4982409;28;123714;-82
2023/07/04 03:18:23;;;;;;;;;;;20.40;92.10;;;20.65;55.58;98543.53;4990445;28;114032;-83
2023/07/04 03:20:49;;;;;;;;;;;20.30;92.10;;;20.63;55.48;98540.31;4988185;28;113776;-83
2023/07/04 03:23:18;;;;;;;;;;;20.30;92.10;;;20.60;55.45;98546.69;4995568;28;124580;-83
2023/07/04 03:25:44;;;;;;;;;;;20.30;92.10;;;20.57;55.73;98550.28;4986689;28;124107;-83
2023/07/04 03:28:10;;;;;;;;;;;20.30;92.10;;;20.57;55.80;98552.28;4989391;28;114388;-83
2023/07/04 03:30:37;;;;;;;;;;;20.30;92.10;;;20.55;55.96;98544.22;4985968;28;113822;-83
2023/07/04 03:33:06;;;;;;;;;;;20.30;92.10;;;20.55;55.57;98544.22;4968768;28;124540;-82
2023/07/04 03:35:38;;;;;;;;;;;20.30;92.10;;;20.54;55.97;98547.44;4980310;28;124492;-82
2023/07/04 03:38:04;;;;;;;;;;;20.20;92.20;;;20.54;55.89;98542.63;4979592;28;114534;-83
2023/07/04 03:40:31;;;;;;;;;;;20.30;92.30;;;20.52;55.91;98536.56;4983820;28;114392;-83
2023/07/04 03:42:59;;;;;;;;;;;20.20;92.30;;;20.51;56.08;98540.56;4958989;28;117817;-82
2023/07/04 03:45:25;;;;;;;;;;;20.20;92.40;;;20.51;56.16;98548.97;4986244;28;124058;-83
2023/07/04 03:47:52;;;;;;;;;;;20.20;92.40;;;20.51;55.76;98543.38;4987753;28;115463;-83
2023/07/04 03:50:18;;;;;;;;;;;20.20;92.40;;;20.54;55.77;98542.63;4988413;28;114710;-82
2023/07/04 03:52:44;;;;;;;;;;;20.20;92.40;;;20.57;55.88;98541.03;4987267;28;124002;-83
2023/07/04 03:55:11;;;;;;;;;;;20.20;92.40;;;20.58;55.91;98539.84;4987983;28;125279;-83
2023/07/04 03:57:39;;;;;;;;;;;20.20;92.40;;;20.57;56.09;98555.88;4972512;28;114019;-82
2023/07/04 04:00:08;;;;;;;;;;;20.20;92.50;;;20.59;56.11;98542.28;4989406;28;113824;-82
2023/07/04 04:02:34;;;;;;;;;;;20.20;92.50;;;20.59;55.93;98541.47;4986955;28;124355;-82
2023/07/04 04:05:01;;;;;;;;;;;20.30;92.50;;;20.62;55.93;98551.94;4983687;28;124424;-82
2023/07/04 04:07:27;;;;;;;;;;;20.30;92.50;;;20.60;55.72;98540.28;4987290;28;114333;-83
2023/07/04 04:09:53;;;;;;;;;;;20.30;92.50;;;20.60;55.94;98541.06;4987783;28;113450;-82
2023/07/04 04:12:19;;;;;;;;;;;20.30;92.50;;;20.59;55.51;98547.88;4981438;28;124205;-83
2023/07/04 04:14:46;;;;;;;;;;;20.30;92.40;;;20.58;55.70;98549.09;4987242;28;123698;-83
2023/07/04 04:17:13;;;;;;;;;;;20.30;92.40;;;20.61;55.88;98541.91;4988185;28;114402;-83
2023/07/04 04:19:39;;;;;;;;;;;20.30;92.40;;;20.62;55.85;98549.91;4987529;28;113830;-82
2023/07/04 04:22:05;;;;;;;;;;;20.30;92.40;;;20.63;56.10;98551.56;4987219;28;123892;-82
2023/07/04 04:24:31;;;;;;;;;;;20.30;92.50;;;20.62;55.82;98547.13;4988912;28;123522;-82
2023/07/04 04:27:02;;;;;;;;;;;20.30;92.40;;;20.64;55.56;98541.94;4990279;28;114552;-82
2023/07/04 04:29:29;;;;;;;;;;;20.30;92.50;;;20.66;55.65;98541.53;4983857;28;113555;-82
2023/07/04 04:31:55;;;;;;;;;;;20.40;92.50;;;20.67;55.88;98545.97;4987491;28;123506;-82
2023/07/04 04:34:26;;;;;;;;;;;20.40;92.50;;;20.70;55.85;98545.19;4990535;28;124066;-82
2023/07/04 04:36:52;;;;;;;;;;;20.40;92.60;;;20.70;55.79;98546.00;4990735;28;115383;-81
2023/07/04 04:39:18;;;;;;;;;;;20.40;92.60;;;20.69;55.79;98544.38;4992501;28;113717;-82
2023/07/04 04:41:45;;;;;;;;;;;20.40;92.60;;;20.68;55.65;98542.75;4993563;28;124744;-82
2023/07/04 04:44:11;;;;;;;;;;;20.40;92.60;;;20.68;55.71;98545.56;4990971;28;123849;-81
2023/07/04 04:46:48;;;;;;;;;;;20.40;92.60;;;20.69;56.12;98546.41;4982086;28;114218;-82
2023/07/04 04:49:17;;;;;;;;;;;20.40;92.70;;;20.70;56.04;98554.41;4990099;28;113788;-81
2023/07/04 04:51:44;;;;;;;;;;;20.30;92.70;;;20.69;56.06;98555.63;4989488;28;124320;-81
2023/07/04 04:54:13;;;;;;;;;;;20.30;92.70;;;20.68;56.10;98553.19;4992125;28;122023;-82
2023/07/04 04:56:44;;;;;;;;;;;20.30;92.80;;;20.69;55.91;98563.25;4989262;28;114402;-82
2023/07/04 04:59:11;;;;;;;;;;;20.30;92.80;;;20.70;55.85;98567.66;4990371;28;113897;-82
2023/07/04 05:01:38;;;;;;;;;;;20.30;92.80;;;20.69;55.96;98564.03;4984517;28;124270;-82
2023/07/04 05:04:04;;;;;;;;;;;20.30;92.80;;;20.70;56.14;98557.22;4988999;28;123960;-81
2023/07/04 05:06:33;;;;;;;;;;;20.40;92.80;;;20.73;55.85;98561.25;4989275;28;114705;-82
2023/07/04 05:09:02;;;;;;;;;;;20.40;92.80;;;20.76;56.02;98566.09;4990497;28;113165;-83
2023/07/04 05:11:31;;;;;;;;;;;20.40;92.80;;;20.81;56.07;98567.75;4989920;28;124039;-82
2023/07/04 05:13:58;;;;;;;;;;;20.40;92.80;;;20.84;55.76;98566.97;4989036;28;124727;-82
2023/07/04 05:16:26;;;;;;;;;;;20.40;92.80;;;20.85;55.83;98574.22;4989083;28;114473;-82
2023/07/04 05:18:52;;;;;;;;;;;20.40;92.80;;;20.86;55.64;98573.81;4993623;28;113535;-82
2023/07/04 05:21:21;;;;;;;;;;;20.50;92.80;;;20.90;55.81;98577.47;4991662;28;124057;-81
2023/07/04 05:23:52;;;;;;;;;;;20.50;92.80;;;20.93;55.82;98581.53;4990236;28;123610;-80
2023/07/04 05:26:27;;;;;;;;;;;20.50;92.80;;;20.98;55.47;98583.94;4988797;28;115560;-82
2023/07/04 05:28:58;;;;;;;;;;;20.60;92.70;;;21.02;55.49;98584.81;4991155;28;114833;-81
2023/07/04 05:31:29;;;;;;;;;;;20.60;92.60;;;21.06;55.04;98594.03;4983817;28;124158;-82
2023/07/04 05:33:55;;;;;;;;;;;20.60;92.50;;;21.11;54.88;98581.66;4974480;28;123584;-82
2023/07/04 05:36:28;;;;;;;;;;;20.70;92.50;;;21.14;55.04;98581.72;4963287;28;114403;-81
2023/07/04 05:39:01;;;;;;;;;;;20.70;92.40;;;21.17;54.60;98586.53;4981311;28;113581;-81
2023/07/04 05:41:29;;;;;;;;;;;20.80;92.30;;;21.21;54.27;98591.38;4979629;28;124250;-83
2023/07/04 05:44:00;;;;;;;;;;;20.80;92.10;;;21.21;54.08;98582.94;4976790;28;124482;-83
2023/07/04 05:46:27;;;;;;;;;;;20.80;91.90;;;21.20;53.88;98579.34;4972675;28;114432;-82
2023/07/04 05:48:53;;;;;;;;;;;20.80;91.80;;;21.21;53.53;98578.13;4973497;28;113799;-81
2023/07/04 05:51:20;;;;;;;;;;;20.80;91.70;;;21.22;53.58;98588.16;4958136;28;123144;-82
2023/07/04 05:53:49;;;;;;;;;;;20.80;91.60;;;21.23;53.41;98586.19;4987489;28;124370;-82
2023/07/04 05:56:15;;;;;;;;;;;20.80;91.50;;;21.26;53.46;98583.41;4991535;28;113156;-83
2023/07/04 05:58:47;;;;;;;;;;;20.80;91.50;;;21.28;53.31;98586.63;4991018;28;112840;-84
2023/07/04 06:01:21;;;;;;;;;;;20.90;91.40;;;21.31;53.00;98590.66;4987403;28;124556;-82
2023/07/04 06:03:50;;;;;;;;;;;20.90;91.30;;;21.35;52.89;98588.69;4991260;28;123951;-81
2023/07/04 06:06:27;;;;;;;;;;;20.90;91.20;;;21.40;52.46;98591.97;4990112;28;114572;-81
2023/07/04 06:08:57;;;;;;;;;;;21.00;91.00;;;21.47;52.51;98594.03;4990839;28;113251;-81
2023/07/04 06:11:30;;;;;;;;;;;21.00;91.00;;;21.54;52.36;98584.81;4988182;28;124326;-81
2023/07/04 06:13:56;;;;;;;;;;;21.10;90.90;;;21.60;52.15;98597.31;4987713;28;124149;-81
2023/07/04 06:16:23;;;;;;;;;;;21.10;90.80;;;21.67;51.95;98593.75;4973510;28;114568;-81
2023/07/04 06:18:49;;;;;;;;;;;21.20;90.70;;;21.73;51.62;98583.75;4991054;28;114722;-81
2023/07/04 06:21:16;;;;;;;;;;;21.30;90.60;;;21.81;51.33;98591.00;4971379;28;124211;-82
2023/07/04 06:23:43;;;;;;;;;;;21.30;90.50;;;21.87;51.04;98588.63;4968983;28;122831;-81
2023/07/04 06:26:10;;;;;;;;;;;21.40;90.40;;;21.94;50.97;98588.69;4987956;28;114835;-82
2023/07/04 06:28:38;;;;;;;;;;;21.40;90.30;;;22.04;50.57;98590.75;4965729;28;114108;-82
2023/07/04 06:31:13;;;;;;;;;;;21.50;90.20;;;22.13;50.34;98587.56;4987162;28;123756;-81
2023/07/04 06:33:40;;;;;;;;;;;21.60;90.00;;;22.20;49.74;98587.63;4977043;28;124090;-81
2023/07/04 06:36:11;;;;;;;;;;;21.60;89.20;;;22.24;48.84;98586.44;4986459;28;114354;-81
2023/07/04 06:38:38;;;;;;;;;;;21.70;88.30;;;22.24;48.43;98586.44;4973717;28;112597;-82
2023/07/04 06:41:10;;;;;;;;;;;21.70;87.20;;;22.24;48.22;98585.63;4989431;28;124014;-84
2023/07/04 06:43:38;;;;;;;;;;;21.80;87.00;;;22.27;48.58;98590.47;4980492;28;124204;-82
2023/07/04 06:46:04;;;;;;;;;;;21.80;87.00;;;22.33;48.17;98602.16;4998994;28;114195;-83
2023/07/04 06:48:35;;;;;;;;;;;21.90;86.70;;;22.37;48.02;98594.53;4988004;28;113559;-83
2023/07/04 06:51:08;;;;;;;;;;;21.90;86.20;;;22.44;47.74;98595.38;4992239;28;124223;-82
2023/07/04 06:53:38;;;;;;;;;;;22.00;86.10;;;22.50;47.34;98590.16;4985039;28;123907;-83
2023/07/04 06:56:09;;;;;;;;;;;22.10;85.50;;;22.53;47.33;98597.00;4987674;28;114247;-83
2023/07/04 06:58:40;;;;;;;;;;;22.10;85.10;;;22.53;47.40;98597.00;4986652;28;113781;-82
2023/07/04 07:01:08;;;;;;;;;;;22.10;84.70;;;22.56;47.12;98596.19;4968469;28;124021;-83
2023/07/04 07:03:37;;;;;;;;;;;20.50;82.90;;;22.62;46.72;98594.59;4979580;28;123921;-83
2023/07/04 07:06:05;;;;;;;;;;;22.20;84.10;;;22.70;46.63;98605.50;4986845;28;115339;-82
2023/07/04 07:08:35;;;;;;;;;;;22.20;84.10;;;22.78;46.38;98608.31;4959933;28;114160;-82
2023/07/04 07:11:15;;;;;;;;;;;22.30;83.60;;;22.80;46.38;98623.63;4987179;28;124608;-82
2023/07/04 07:13:42;;;;;;;;;;;22.30;83.00;;;22.82;45.40;98624.03;4986003;28;124061;-82
2023/07/04 07:16:10;;;;;;;;;;;22.30;82.30;;;22.81;45.53;98613.97;4987233;28;114582;-83
2023/07/04 07:18:37;;;;;;;;;;;22.40;82.00;;;22.80;45.36;98617.97;4991250;28;113548;-83
2023/07/04 07:21:05;;;;;;;;;;;22.40;81.80;;;22.83;45.47;98620.00;4986963;28;124327;-82
2023/07/04 07:23:33;;;;;;;;;;;22.40;81.50;;;22.86;45.18;98627.69;4987474;28;123726;-83
2023/07/04 07:26:00;;;;;;;;;;;22.50;81.30;;;22.86;44.88;98624.03;4986761;28;114398;-82
2023/07/04 07:28:28;;;;;;;;;;;22.50;80.70;;;22.82;44.67;98620.41;4987635;28;114520;-83
2023/07/04 07:31:04;;;;;;;;;;;22.40;79.60;;;22.80;44.60;98623.63;4986269;28;124225;-82
2023/07/04 07:33:32;;;;;;;;;;;22.50;80.00;;;22.79;45.07;98624.84;4975299;28;124225;-83
2023/07/04 07:35:59;;;;;;;;;;;22.40;79.60;;;22.76;44.69;98628.44;4986298;28;114470;-83
2023/07/04 07:38:26;;;;;;;;;;;22.40;79.70;;;22.75;44.49;98632.44;4986950;28;113690;-82
2023/07/04 07:40:56;;;;;;;;;;;22.40;79.50;;;22.75;44.99;98632.44;4978309;28;124238;-82
2023/07/04 07:43:22;;;;;;;;;;;22.40;79.50;;;22.77;44.86;98621.59;4969632;28;123091;-83
2023/07/04 07:45:50;;;;;;;;;;;22.40;79.90;;;22.84;44.94;98624.44;4981281;28;114507;-82
2023/07/04 07:48:19;;;;;;;;;;;22.50;79.90;;;22.92;44.67;98619.63;4992280;28;113571;-82
2023/07/04 07:50:45;;;;;;;;;;;22.50;79.70;;;22.93;44.59;98615.59;4989912;28;124624;-82
2023/07/04 07:53:13;;;;;;;;;;;22.60;79.30;;;22.96;43.92;98623.28;4988381;28;124183;-82
2023/07/04 07:55:41;;;;;;;;;;;22.60;79.00;;;22.97;44.07;98633.34;4985898;28;115392;-82
2023/07/04 07:58:08;;;;;;;;;;;22.60;78.70;;;22.98;44.06;98614.44;4989957;28;113713;-82
2023/07/04 08:00:37;;;;;;;;;;;22.60;78.60;;;23.04;44.08;98616.44;4987546;28;123303;-82
2023/07/04 08:03:03;;;;;;;;;;;22.70;78.50;;;23.08;43.63;98611.63;4986428;28;123867;-82
2023/07/04 08:05:30;;;;;;;;;;;22.70;77.90;;;23.14;42.73;98614.84;4988337;28;115499;-82
2023/07/04 08:07:56;;;;;;;;;;;22.70;76.40;;;23.16;42.41;98620.91;4987993;28;113687;-82
2023/07/04 08:10:22;;;;;;;;;;;22.80;75.80;;;23.19;41.90;98625.72;4985608;28;124222;-82
2023/07/04 08:12:48;;;;;;;;;;;22.70;74.80;;;23.22;41.67;98621.31;4987213;28;123921;-83
2023/07/04 08:15:15;;;;;;;;;;;22.80;74.80;;;23.27;41.46;98618.09;4987485;28;114263;-82
2023/07/04 08:17:41;;;;;;;;;;;22.90;74.40;;;23.32;41.63;98610.03;4988604;28;113701;-82
2023/07/04 08:20:09;;;;;;;;;;;22.90;74.30;;;23.40;41.55;98610.00;4971978;28;123249;-83
2023/07/04 08:22:36;;;;;;;;;;;23.00;74.30;;;23.46;41.50;98609.22;4989102;28;124198;-83
2023/07/04 08:25:03;;;;;;;;;;;23.00;74.00;;;23.52;41.38;98613.22;4986528;28;114329;-83
2023/07/04 08:27:30;;;;;;;;;;;23.10;74.10;;;23.63;41.39;98607.59;4987083;28;114381;-83
2023/07/04 08:29:56;;;;;;;;;;;23.20;74.00;;;23.71;41.46;98620.50;4986094;28;124655;-82
2023/07/04 08:32:22;;;;;;;;;;;23.20;73.90;;;23.73;41.07;98611.63;4984491;28;123790;-83
2023/07/04 08:34:48;;;;;;;;;;;23.30;73.40;;;23.74;40.93;98611.22;4987418;28;115007;-82
2023/07/04 08:37:15;;;;;;;;;;;23.30;73.10;;;23.77;41.06;98616.03;4986946;28;113605;-82
2023/07/04 08:39:45;;;;;;;;;;;23.40;73.20;;;23.83;40.89;98612.81;4986258;28;123874;-83
2023/07/04 08:42:14;;;;;;;;;;;23.50;73.10;;;23.88;41.00;98612.41;4987766;28;122999;-82
2023/07/04 08:44:45;;;;;;;;;;;23.50;72.90;;;23.92;40.65;98610.38;4984636;28;114529;-83
2023/07/04 08:47:13;;;;;;;;;;;23.50;72.30;;;23.91;40.79;98611.59;4986573;28;115081;-83
2023/07/04 08:49:56;;;;;;;;;;;23.50;72.50;;;23.95;40.99;98615.22;4972179;28;124040;-83
2023/07/04 08:52:28;;;;;;;;;;;23.50;72.70;;;24.04;40.87;98598.66;4972014;28;123348;-83
2023/07/04 08:54:54;;;;;;;;;;;23.60;72.70;;;24.12;40.78;98614.34;4977583;28;113826;-82
2023/07/04 08:57:47;;;;;;;;;;;23.60;72.60;;;24.14;40.15;98606.28;4984200;28;113608;-82
2023/07/04 09:00:20;;;;;;;;;;;23.70;71.70;;;24.11;40.19;98607.09;4975932;28;124193;-83
2023/07/04 09:03:15;;;;;;;;;;;23.70;71.30;;;24.08;40.31;98598.66;4973233;28;124680;-82
2023/07/04 09:06:11;;;;;;;;;;;23.70;71.40;;;24.09;40.19;98598.22;4986115;28;113680;-82
2023/07/04 09:09:05;;;;;;;;;;;23.70;71.00;;;24.16;40.45;98609.50;4986036;28;113966;-82
2023/07/04 09:11:32;;;;;;;;;;;23.80;71.40;;;24.21;40.13;98603.44;4980553;28;124226;-83
2023/07/04 09:14:02;;;;;;;;;;;23.80;70.90;;;24.27;40.07;98606.66;4987930;28;123869;-82
2023/07/04 09:16:51;;;;;;;;;;;23.80;70.80;;;24.31;40.05;98601.78;4989820;28;114750;-81
2023/07/04 09:19:19;;;;;;;;;;;23.90;70.70;;;24.38;40.03;98610.22;4982028;28;113763;-81
2023/07/04 09:21:45;;;;;;;;;;;24.00;71.00;;;24.41;39.72;98588.81;4988401;28;123111;-80
2023/07/04 09:24:12;;;;;;;;;;;24.00;70.60;;;24.47;39.97;98592.84;4973655;28;123583;-80
2023/07/04 09:26:45;;;;;;;;;;;24.00;70.80;;;24.55;39.81;98593.63;4988276;28;114962;-80
2023/07/04 09:29:13;;;;;;;;;;;24.10;70.70;;;24.60;39.49;98585.53;4984715;28;113954;-81
2023/07/04 09:31:42;;;;;;;;;;;24.20;70.40;;;24.65;39.45;98582.25;4983920;28;124218;-80
2023/07/04 09:35:00;;;;;;;;;;;24.20;70.30;;;24.71;39.38;98579.00;4984167;28;124148;-80
2023/07/04 09:37:29;;;;;;;;;;;24.20;69.90;;;24.74;38.92;98583.81;4996043;28;115130;-82
2023/07/04 09:40:00;;;;;;;;;;;24.30;69.10;;;24.77;38.62;98577.34;4990457;28;114737;-80
2023/07/04 09:42:32;;;;;;;;;;;24.40;68.40;;;24.82;38.34;98586.19;4992321;28;124171;-81
2023/07/04 09:45:06;;;;;;;;;;;24.40;68.30;;;24.92;37.58;98590.16;4988609;28;123862;-80
2023/07/04 09:47:33;;;;;;;;;;;24.40;67.50;;;24.97;37.03;98597.41;4991595;28;113880;-81
2023/07/04 09:50:26;;;;;;;;;;;24.50;65.80;;;24.99;37.30;98583.69;4988545;28;113869;-81
2023/07/04 09:53:09;;;;;;;;;;;24.50;65.80;;;25.03;37.30;98590.91;4998845;28;124588;-81
2023/07/04 09:55:39;;;;;;;;;;;24.50;66.10;;;25.09;37.10;98583.59;5005256;28;123850;-81
2023/07/04 09:58:16;;;;;;;;;;;24.60;65.60;;;25.14;37.01;98591.63;4987871;28;114631;-81
2023/07/04 10:00:44;;;;;;;;;;;24.70;65.50;;;25.15;37.01;98581.16;4986711;28;114257;-81
2023/07/04 10:03:11;;;;;;;;;;;24.70;64.70;;;25.15;36.46;98581.16;4979597;28;124944;-81
2023/07/04 10:05:40;;;;;;;;;;;24.70;64.70;;;25.17;37.32;98594.88;4987069;28;123908;-82
2023/07/04 10:08:14;;;;;;;;;;;24.70;64.90;;;25.12;37.49;98581.97;4974996;28;114250;-81
2023/07/04 10:10:58;;;;;;;;;;;24.70;65.60;;;25.07;37.86;98574.72;4973186;28;113529;-81
2023/07/04 10:13:35;;;;;;;;;;;24.70;65.80;;;25.11;37.41;98577.50;4991461;28;124951;-81
2023/07/04 10:16:18;;;;;;;;;;;24.80;66.20;;;25.18;38.19;98573.88;4982139;28;123673;-82
2023/07/04 10:18:44;;;;;;;;;;;24.80;66.50;;;25.23;37.20;98564.94;4973451;28;113512;-82
2023/07/04 10:21:10;;;;;;;;;;;24.90;65.50;;;25.26;36.91;98572.59;4971796;28;112877;-82
2023/07/04 10:23:41;;;;;;;;;;;24.90;64.90;;;25.30;37.12;98573.34;4982434;28;123368;-83
2023/07/04 10:26:08;;;;;;;;;;;24.90;64.70;;;25.33;36.90;98564.03;4991960;28;123918;-82
2023/07/04 10:28:35;;;;;;;;;;;24.90;64.50;;;25.35;36.47;98567.25;4985982;28;115283;-82
2023/07/04 10:31:17;;;;;;;;;;;25.00;64.00;;;25.33;36.32;98553.53;4988061;28;115263;-82
2023/07/04 10:34:12;;;;;;;;;;;25.00;63.70;;;25.31;36.34;98561.63;4987021;28;124280;-82
2023/07/04 10:36:39;;;;;;;;;;;25.00;63.50;;;25.37;35.84;98553.50;4988829;28;123631;-82
2023/07/04 10:39:09;;;;;;;;;;;25.10;62.80;;;25.38;35.32;98542.97;4987545;28;113991;-81
2023/07/04 10:41:54;;;;;;;;;;;25.10;61.50;;;25.37;34.96;98550.66;4986856;28;113873;-82
2023/07/04 10:44:23;;;;;;;;;;;25.10;60.80;;;25.34;35.89;98552.31;4989019;28;123474;-82
2023/07/04 10:46:57;;;;;;;;;;;25.00;61.50;;;25.33;35.42;98552.72;4988690;28;124312;-82
2023/07/04 10:49:29;;;;;;;;;;;25.10;61.80;;;25.35;35.50;98561.59;4988852;28;114515;-82
2023/07/04 10:52:09;;;;;;;;;;;25.00;61.30;;;25.35;35.71;98555.94;4987652;28;113790;-82
2023/07/04 10:54:35;;;;;;;;;;;25.00;61.40;;;25.36;35.47;98560.34;4989633;28;125417;-83
2023/07/04 10:57:09;;;;;;;;;;;25.00;61.50;;;25.38;35.61;98560.75;4989522;28;123496;-82
2023/07/04 10:59:39;;;;;;;;;;;25.00;61.60;;;25.40;35.92;98547.00;4987329;28;114324;-82
2023/07/04 11:02:13;;;;;;;;;;;25.10;61.60;;;25.44;35.50;98553.44;4985347;28;113842;-82
2023/07/04 11:04:39;;;;;;;;;;;25.10;61.50;;;25.45;35.15;98551.41;4985675;28;124133;-82
2023/07/04 11:07:09;;;;;;;;;;;25.10;60.80;;;25.48;35.69;98547.72;4985587;28;124859;-82
2023/07/04 11:09:38;;;;;;;;;;;25.10;61.10;;;25.51;35.40;98538.41;4986971;28;114656;-82
2023/07/04 11:12:07;;;;;;;;;;;25.10;61.50;;;25.54;35.50;98535.53;4987321;28;113672;-82
2023/07/04 11:14:37;;;;;;;;;;;25.20;61.40;;;25.63;35.31;98531.41;4989569;28;123986;-83
2023/07/04 11:17:04;;;;;;;;;;;25.20;61.40;;;25.74;35.84;98534.94;4972782;28;123157;-82
2023/07/04 11:19:34;;;;;;;;;;;25.30;61.50;;;25.84;34.82;98531.19;4987082;28;115365;-82
2023/07/04 11:22:00;;;;;;;;;;;25.40;60.80;;;25.92;34.59;98529.88;4985391;28;115328;-82